sensor_id;sensor_type;location;lat;lon;timestamp;pressure;altitude;pressure_sealevel;temperature;humidity
73106;BME280;61559;50.476;15.588;2022-12-07T00:00:39;97220.82;;;1.69;86.37
73106;BME280;61559;50.476;15.588;2022-12-07T00:03:12;97215.95;;;1.66;86.47
73106;BME280;61559;50.476;15.588;2022-12-07T00:05:43;97212.69;;;1.66;86.67
73106;BME280;61559;50.476;15.588;2022-12-07T00:08:15;97212.04;;;1.65;86.64
73106;BME280;61559;50.476;15.588;2022-12-07T00:10:47;97212.35;;;1.65;86.66
73106;BME280;61559;50.476;15.588;2022-12-07T00:13:18;97212.34;;;1.65;86.61
73106;BME280;61559;50.476;15.588;2022-12-07T00:15:49;97211.23;;;1.65;86.75
73106;BME280;61559;50.476;15.588;2022-12-07T00:18:20;97209.20;;;1.66;86.79
73106;BME280;61559;50.476;15.588;2022-12-07T00:20:51;97208.54;;;1.66;86.55
73106;BME280;61559;50.476;15.588;2022-12-07T00:23:22;97205.54;;;1.64;86.55
73106;BME280;61559;50.476;15.588;2022-12-07T00:25:53;97206.61;;;1.63;86.58
73106;BME280;61559;50.476;15.588;2022-12-07T00:28:23;97207.67;;;1.62;86.71
73106;BME280;61559;50.476;15.588;2022-12-07T00:31:01;97204.42;;;1.61;86.61
73106;BME280;61559;50.476;15.588;2022-12-07T00:33:32;97199.65;;;1.61;86.78
73106;BME280;61559;50.476;15.588;2022-12-07T00:36:05;97198.89;;;1.62;86.78
73106;BME280;61559;50.476;15.588;2022-12-07T00:38:38;97200.41;;;1.62;86.64
73106;BME280;61559;50.476;15.588;2022-12-07T00:41:12;97202.40;;;1.63;86.77
73106;BME280;61559;50.476;15.588;2022-12-07T00:43:44;97201.43;;;1.63;86.69
73106;BME280;61559;50.476;15.588;2022-12-07T00:46:17;97200.36;;;1.63;86.50
73106;BME280;61559;50.476;15.588;2022-12-07T00:48:49;97202.29;;;1.61;86.70
73106;BME280;61559;50.476;15.588;2022-12-07T00:51:21;97200.41;;;1.59;86.48
73106;BME280;61559;50.476;15.588;2022-12-07T00:53:53;97198.03;;;1.55;86.77
73106;BME280;61559;50.476;15.588;2022-12-07T00:56:25;97195.45;;;1.51;86.84
73106;BME280;61559;50.476;15.588;2022-12-07T00:58:58;97199.56;;;1.47;86.83
73106;BME280;61559;50.476;15.588;2022-12-07T01:01:32;97196.06;;;1.44;87.01
73106;BME280;61559;50.476;15.588;2022-12-07T01:04:04;97194.89;;;1.40;86.91
73106;BME280;61559;50.476;15.588;2022-12-07T01:06:35;97200.73;;;1.38;86.96
73106;BME280;61559;50.476;15.588;2022-12-07T01:09:06;97202.09;;;1.34;86.92
73106;BME280;61559;50.476;15.588;2022-12-07T01:11:37;97204.02;;;1.31;87.01
73106;BME280;61559;50.476;15.588;2022-12-07T01:14:10;97203.36;;;1.29;87.11
73106;BME280;61559;50.476;15.588;2022-12-07T01:16:41;97205.89;;;1.27;87.24
73106;BME280;61559;50.476;15.588;2022-12-07T01:19:12;97203.30;;;1.24;87.24
73106;BME280;61559;50.476;15.588;2022-12-07T01:21:43;97204.22;;;1.23;87.28
73106;BME280;61559;50.476;15.588;2022-12-07T01:24:14;97204.78;;;1.23;87.31
73106;BME280;61559;50.476;15.588;2022-12-07T01:26:48;97203.00;;;1.22;87.65
73106;BME280;61559;50.476;15.588;2022-12-07T01:29:19;97208.02;;;1.21;87.63
73106;BME280;61559;50.476;15.588;2022-12-07T01:31:51;97205.23;;;1.20;87.60
73106;BME280;61559;50.476;15.588;2022-12-07T01:34:22;97205.34;;;1.21;87.59
73106;BME280;61559;50.476;15.588;2022-12-07T01:36:53;97206.40;;;1.20;87.51
73106;BME280;61559;50.476;15.588;2022-12-07T01:39:24;97209.75;;;1.20;87.60
73106;BME280;61559;50.476;15.588;2022-12-07T01:41:55;97213.60;;;1.19;87.67
73106;BME280;61559;50.476;15.588;2022-12-07T01:44:27;97209.35;;;1.19;87.55
73106;BME280;61559;50.476;15.588;2022-12-07T01:47:00;97211.22;;;1.19;87.70
73106;BME280;61559;50.476;15.588;2022-12-07T01:49:35;97211.73;;;1.19;87.66
73106;BME280;61559;50.476;15.588;2022-12-07T01:52:15;97215.59;;;1.19;87.71
73106;BME280;61559;50.476;15.588;2022-12-07T01:54:49;97220.66;;;1.20;87.78
73106;BME280;61559;50.476;15.588;2022-12-07T01:57:21;97217.01;;;1.22;87.74
73106;BME280;61559;50.476;15.588;2022-12-07T01:59:54;97216.14;;;1.23;87.68
73106;BME280;61559;50.476;15.588;2022-12-07T02:02:29;97213.60;;;1.23;87.76
73106;BME280;61559;50.476;15.588;2022-12-07T02:05:04;97210.21;;;1.23;87.68
73106;BME280;61559;50.476;15.588;2022-12-07T02:07:38;97210.31;;;1.23;87.71
73106;BME280;61559;50.476;15.588;2022-12-07T02:10:17;97207.72;;;1.22;87.86
73106;BME280;61559;50.476;15.588;2022-12-07T02:12:51;97208.33;;;1.22;87.72
73106;BME280;61559;50.476;15.588;2022-12-07T02:15:28;97206.10;;;1.22;87.70
73106;BME280;61559;50.476;15.588;2022-12-07T02:18:05;97203.70;;;1.21;87.76
73106;BME280;61559;50.476;15.588;2022-12-07T02:20:41;97208.43;;;1.23;87.76
73106;BME280;61559;50.476;15.588;2022-12-07T02:23:34;97205.23;;;1.23;87.65
73106;BME280;61559;50.476;15.588;2022-12-07T02:26:23;97207.77;;;1.24;87.59
73106;BME280;61559;50.476;15.588;2022-12-07T02:29:16;97208.08;;;1.24;87.40
73106;BME280;61559;50.476;15.588;2022-12-07T02:31:55;97207.31;;;1.24;87.33
73106;BME280;61559;50.476;15.588;2022-12-07T02:34:34;97204.88;;;1.24;87.32
73106;BME280;61559;50.476;15.588;2022-12-07T02:37:12;97206.66;;;1.25;87.22
73106;BME280;61559;50.476;15.588;2022-12-07T02:39:53;97210.36;;;1.25;87.26
73106;BME280;61559;50.476;15.588;2022-12-07T02:42:28;97211.08;;;1.26;87.02
73106;BME280;61559;50.476;15.588;2022-12-07T02:45:02;97212.29;;;1.29;87.17
73106;BME280;61559;50.476;15.588;2022-12-07T02:47:35;97207.27;;;1.32;87.20
73106;BME280;61559;50.476;15.588;2022-12-07T02:50:09;97202.86;;;1.34;87.07
73106;BME280;61559;50.476;15.588;2022-12-07T02:52:41;97202.95;;;1.37;86.97
73106;BME280;61559;50.476;15.588;2022-12-07T02:55:13;97199.36;;;1.39;87.11
73106;BME280;61559;50.476;15.588;2022-12-07T02:57:56;97202.45;;;1.40;86.90
73106;BME280;61559;50.476;15.588;2022-12-07T03:00:37;97197.02;;;1.40;86.88
73106;BME280;61559;50.476;15.588;2022-12-07T03:03:13;97195.86;;;1.39;86.90
73106;BME280;61559;50.476;15.588;2022-12-07T03:05:58;97191.84;;;1.39;86.94
73106;BME280;61559;50.476;15.588;2022-12-07T03:08:37;97188.60;;;1.38;87.17
73106;BME280;61559;50.476;15.588;2022-12-07T03:11:12;97185.00;;;1.37;87.22
73106;BME280;61559;50.476;15.588;2022-12-07T03:13:55;97186.11;;;1.35;86.92
73106;BME280;61559;50.476;15.588;2022-12-07T03:16:33;97188.80;;;1.34;86.89
73106;BME280;61559;50.476;15.588;2022-12-07T03:19:07;97190.27;;;1.34;87.01
73106;BME280;61559;50.476;15.588;2022-12-07T03:21:42;97185.15;;;1.34;87.00
73106;BME280;61559;50.476;15.588;2022-12-07T03:24:16;97174.04;;;1.35;87.09
73106;BME280;61559;50.476;15.588;2022-12-07T03:26:50;97178.40;;;1.34;86.72
73106;BME280;61559;50.476;15.588;2022-12-07T03:29:27;97177.98;;;1.33;86.77
73106;BME280;61559;50.476;15.588;2022-12-07T03:32:02;97176.02;;;1.33;86.55
73106;BME280;61559;50.476;15.588;2022-12-07T03:34:38;97172.92;;;1.34;86.59
73106;BME280;61559;50.476;15.588;2022-12-07T03:37:14;97173.58;;;1.32;86.14
73106;BME280;61559;50.476;15.588;2022-12-07T03:39:49;97173.42;;;1.32;86.43
73106;BME280;61559;50.476;15.588;2022-12-07T03:42:27;97169.48;;;1.29;86.47
73106;BME280;61559;50.476;15.588;2022-12-07T03:44:59;97173.52;;;1.30;86.22
73106;BME280;61559;50.476;15.588;2022-12-07T03:47:34;97173.33;;;1.31;86.55
73106;BME280;61559;50.476;15.588;2022-12-07T03:50:11;97173.27;;;1.33;86.41
73106;BME280;61559;50.476;15.588;2022-12-07T03:52:47;97168.16;;;1.33;86.41
73106;BME280;61559;50.476;15.588;2022-12-07T03:55:22;97169.52;;;1.34;86.42
73106;BME280;61559;50.476;15.588;2022-12-07T03:58:06;97171.09;;;1.34;86.16
73106;BME280;61559;50.476;15.588;2022-12-07T04:00:38;97161.05;;;1.34;86.36
73106;BME280;61559;50.476;15.588;2022-12-07T04:03:10;97158.77;;;1.36;86.42
73106;BME280;61559;50.476;15.588;2022-12-07T04:05:42;97157.45;;;1.38;86.53
73106;BME280;61559;50.476;15.588;2022-12-07T04:08:13;97156.83;;;1.40;86.51
73106;BME280;61559;50.476;15.588;2022-12-07T04:10:44;97157.39;;;1.41;86.56
73106;BME280;61559;50.476;15.588;2022-12-07T04:13:15;97156.17;;;1.40;86.36
73106;BME280;61559;50.476;15.588;2022-12-07T04:15:47;97152.17;;;1.39;86.57
73106;BME280;61559;50.476;15.588;2022-12-07T04:18:18;97150.45;;;1.38;86.48
73106;BME280;61559;50.476;15.588;2022-12-07T04:20:49;97152.52;;;1.37;86.53
73106;BME280;61559;50.476;15.588;2022-12-07T04:23:20;97152.48;;;1.38;86.53
73106;BME280;61559;50.476;15.588;2022-12-07T04:25:51;97152.02;;;1.39;86.57
73106;BME280;61559;50.476;15.588;2022-12-07T04:28:22;97146.23;;;1.38;86.66
73106;BME280;61559;50.476;15.588;2022-12-07T04:30:53;97147.91;;;1.38;86.60
73106;BME280;61559;50.476;15.588;2022-12-07T04:33:25;97149.73;;;1.39;86.69
73106;BME280;61559;50.476;15.588;2022-12-07T04:35:56;97152.83;;;1.39;86.51
73106;BME280;61559;50.476;15.588;2022-12-07T04:38:27;97153.39;;;1.40;86.82
73106;BME280;61559;50.476;15.588;2022-12-07T04:40:58;97155.87;;;1.42;87.08
73106;BME280;61559;50.476;15.588;2022-12-07T04:43:29;97159.67;;;1.45;87.01
73106;BME280;61559;50.476;15.588;2022-12-07T04:46:00;97159.63;;;1.46;87.03
73106;BME280;61559;50.476;15.588;2022-12-07T04:48:31;97155.82;;;1.43;86.72
73106;BME280;61559;50.476;15.588;2022-12-07T04:51:03;97156.42;;;1.41;86.59
73106;BME280;61559;50.476;15.588;2022-12-07T04:53:35;97157.60;;;1.39;86.43
73106;BME280;61559;50.476;15.588;2022-12-07T04:56:06;97157.90;;;1.38;86.60
73106;BME280;61559;50.476;15.588;2022-12-07T04:58:37;97155.27;;;1.37;86.60
73106;BME280;61559;50.476;15.588;2022-12-07T05:01:08;97152.02;;;1.35;86.69
73106;BME280;61559;50.476;15.588;2022-12-07T05:03:40;97155.11;;;1.32;86.61
73106;BME280;61559;50.476;15.588;2022-12-07T05:06:10;97158.27;;;1.30;86.50
73106;BME280;61559;50.476;15.588;2022-12-07T05:08:42;97157.05;;;1.28;86.74
73106;BME280;61559;50.476;15.588;2022-12-07T05:11:14;97154.46;;;1.29;86.53
73106;BME280;61559;50.476;15.588;2022-12-07T05:14:07;97152.63;;;1.29;86.53
73106;BME280;61559;50.476;15.588;2022-12-07T05:16:39;97151.15;;;1.30;86.54
73106;BME280;61559;50.476;15.588;2022-12-07T05:19:11;97148.02;;;1.30;86.37
73106;BME280;61559;50.476;15.588;2022-12-07T05:21:40;97149.89;;;1.30;86.42
73106;BME280;61559;50.476;15.588;2022-12-07T05:24:13;97149.44;;;1.28;86.56
73106;BME280;61559;50.476;15.588;2022-12-07T05:26:45;97149.02;;;1.30;86.44
73106;BME280;61559;50.476;15.588;2022-12-07T05:29:17;97147.35;;;1.30;86.40
73106;BME280;61559;50.476;15.588;2022-12-07T05:31:48;97147.45;;;1.31;86.31
73106;BME280;61559;50.476;15.588;2022-12-07T05:34:19;97145.02;;;1.33;86.35
73106;BME280;61559;50.476;15.588;2022-12-07T05:36:50;97144.50;;;1.35;86.45
73106;BME280;61559;50.476;15.588;2022-12-07T05:39:21;97147.20;;;1.36;86.32
73106;BME280;61559;50.476;15.588;2022-12-07T05:41:52;97148.36;;;1.37;86.17
73106;BME280;61559;50.476;15.588;2022-12-07T05:44:41;97146.23;;;1.36;86.14
73106;BME280;61559;50.476;15.588;2022-12-07T05:47:13;97144.20;;;1.36;86.26
73106;BME280;61559;50.476;15.588;2022-12-07T05:49:45;97143.19;;;1.35;86.12
73106;BME280;61559;50.476;15.588;2022-12-07T05:52:16;97141.05;;;1.35;86.27
73106;BME280;61559;50.476;15.588;2022-12-07T05:54:47;97136.95;;;1.34;86.24
73106;BME280;61559;50.476;15.588;2022-12-07T05:57:18;97135.23;;;1.36;86.37
73106;BME280;61559;50.476;15.588;2022-12-07T05:59:49;97133.95;;;1.37;86.36
73106;BME280;61559;50.476;15.588;2022-12-07T06:02:20;97133.14;;;1.37;86.24
73106;BME280;61559;50.476;15.588;2022-12-07T06:04:51;97140.50;;;1.38;86.37
73106;BME280;61559;50.476;15.588;2022-12-07T06:07:22;97142.88;;;1.38;86.39
73106;BME280;61559;50.476;15.588;2022-12-07T06:09:53;97146.89;;;1.36;86.33
73106;BME280;61559;50.476;15.588;2022-12-07T06:12:24;97145.16;;;1.33;86.39
73106;BME280;61559;50.476;15.588;2022-12-07T06:15:05;97145.38;;;1.31;86.44
73106;BME280;61559;50.476;15.588;2022-12-07T06:17:37;97146.59;;;1.28;86.54
73106;BME280;61559;50.476;15.588;2022-12-07T06:20:08;97152.08;;;1.28;86.60
73106;BME280;61559;50.476;15.588;2022-12-07T06:22:40;97152.27;;;1.25;86.77
73106;BME280;61559;50.476;15.588;2022-12-07T06:25:11;97153.64;;;1.23;86.82
73106;BME280;61559;50.476;15.588;2022-12-07T06:27:42;97152.38;;;1.20;86.91
73106;BME280;61559;50.476;15.588;2022-12-07T06:30:14;97150.65;;;1.18;86.89
73106;BME280;61559;50.476;15.588;2022-12-07T06:32:45;97149.98;;;1.17;87.03
73106;BME280;61559;50.476;15.588;2022-12-07T06:35:16;97145.77;;;1.17;86.94
73106;BME280;61559;50.476;15.588;2022-12-07T06:37:46;97144.31;;;1.17;87.01
73106;BME280;61559;50.476;15.588;2022-12-07T06:40:18;97143.39;;;1.15;86.98
73106;BME280;61559;50.476;15.588;2022-12-07T06:42:49;97140.55;;;1.14;86.83
73106;BME280;61559;50.476;15.588;2022-12-07T06:45:20;97140.51;;;1.12;86.77
73106;BME280;61559;50.476;15.588;2022-12-07T06:47:50;97136.19;;;1.10;86.94
73106;BME280;61559;50.476;15.588;2022-12-07T06:50:21;97136.60;;;1.06;86.87
73106;BME280;61559;50.476;15.588;2022-12-07T06:52:53;97132.45;;;1.04;86.85
73106;BME280;61559;50.476;15.588;2022-12-07T06:55:24;97129.20;;;1.01;87.01
73106;BME280;61559;50.476;15.588;2022-12-07T06:57:56;97125.29;;;0.96;86.66
73106;BME280;61559;50.476;15.588;2022-12-07T07:00:27;97133.80;;;0.92;86.71
73106;BME280;61559;50.476;15.588;2022-12-07T07:02:58;97137.71;;;0.86;86.84
73106;BME280;61559;50.476;15.588;2022-12-07T07:05:30;97140.26;;;0.81;86.82
73106;BME280;61559;50.476;15.588;2022-12-07T07:08:01;97139.90;;;0.77;86.61
73106;BME280;61559;50.476;15.588;2022-12-07T07:10:51;97138.92;;;0.74;86.64
73106;BME280;61559;50.476;15.588;2022-12-07T07:13:22;97137.65;;;0.72;86.78
73106;BME280;61559;50.476;15.588;2022-12-07T07:15:53;97140.64;;;0.71;86.69
73106;BME280;61559;50.476;15.588;2022-12-07T07:18:25;97136.48;;;0.70;86.79
73106;BME280;61559;50.476;15.588;2022-12-07T07:20:56;97137.09;;;0.69;86.81
73106;BME280;61559;50.476;15.588;2022-12-07T07:23:28;97134.56;;;0.68;86.65
73106;BME280;61559;50.476;15.588;2022-12-07T07:25:59;97138.56;;;0.67;86.78
73106;BME280;61559;50.476;15.588;2022-12-07T07:28:30;97137.14;;;0.66;86.79
73106;BME280;61559;50.476;15.588;2022-12-07T07:30:59;97136.88;;;0.65;86.69
73106;BME280;61559;50.476;15.588;2022-12-07T07:36:01;97149.61;;;0.64;86.16
73106;BME280;61559;50.476;15.588;2022-12-07T07:38:32;97150.92;;;0.65;86.23
73106;BME280;61559;50.476;15.588;2022-12-07T07:41:04;97147.83;;;0.64;86.05
73106;BME280;61559;50.476;15.588;2022-12-07T07:43:35;97153.45;;;0.64;85.87
73106;BME280;61559;50.476;15.588;2022-12-07T07:46:06;97155.79;;;0.63;85.77
73106;BME280;61559;50.476;15.588;2022-12-07T07:48:37;97156.45;;;0.63;85.90
73106;BME280;61559;50.476;15.588;2022-12-07T07:51:09;97156.19;;;0.63;85.92
73106;BME280;61559;50.476;15.588;2022-12-07T07:53:40;97159.44;;;0.65;86.09
73106;BME280;61559;50.476;15.588;2022-12-07T07:56:11;97159.76;;;0.69;86.25
73106;BME280;61559;50.476;15.588;2022-12-07T07:58:42;97161.64;;;0.74;86.44
73106;BME280;61559;50.476;15.588;2022-12-07T08:01:13;97159.77;;;0.79;86.33
73106;BME280;61559;50.476;15.588;2022-12-07T08:03:46;97162.72;;;0.85;86.23
73106;BME280;61559;50.476;15.588;2022-12-07T08:06:17;97164.78;;;0.91;86.56
73106;BME280;61559;50.476;15.588;2022-12-07T08:08:47;97169.86;;;0.97;86.53
73106;BME280;61559;50.476;15.588;2022-12-07T08:11:19;97169.52;;;1.02;86.59
73106;BME280;61559;50.476;15.588;2022-12-07T08:13:50;97169.66;;;1.04;86.53
73106;BME280;61559;50.476;15.588;2022-12-07T08:16:22;97172.11;;;1.10;86.70
73106;BME280;61559;50.476;15.588;2022-12-07T08:18:53;97167.74;;;1.15;86.79
73106;BME280;61559;50.476;15.588;2022-12-07T08:21:24;97166.16;;;1.20;86.64
73106;BME280;61559;50.476;15.588;2022-12-07T08:23:55;97166.63;;;1.23;86.64
73106;BME280;61559;50.476;15.588;2022-12-07T08:26:27;97167.90;;;1.25;86.68
73106;BME280;61559;50.476;15.588;2022-12-07T08:28:58;97161.35;;;1.26;86.21
73106;BME280;61559;50.476;15.588;2022-12-07T08:31:29;97165.16;;;1.27;85.66
73106;BME280;61559;50.476;15.588;2022-12-07T08:34:01;97167.64;;;1.27;85.42
73106;BME280;61559;50.476;15.588;2022-12-07T08:36:32;97161.91;;;1.26;84.92
73106;BME280;61559;50.476;15.588;2022-12-07T08:39:03;97161.25;;;1.29;85.18
73106;BME280;61559;50.476;15.588;2022-12-07T08:41:54;97162.12;;;1.33;85.11
73106;BME280;61559;50.476;15.588;2022-12-07T08:44:25;97164.24;;;1.35;84.80
73106;BME280;61559;50.476;15.588;2022-12-07T08:46:58;97168.91;;;1.36;84.58
73106;BME280;61559;50.476;15.588;2022-12-07T08:49:34;97168.77;;;1.37;84.55
73106;BME280;61559;50.476;15.588;2022-12-07T08:52:07;97168.20;;;1.37;84.73
73106;BME280;61559;50.476;15.588;2022-12-07T08:54:38;97163.79;;;1.37;84.35
73106;BME280;61559;50.476;15.588;2022-12-07T08:57:11;97162.52;;;1.37;83.87
73106;BME280;61559;50.476;15.588;2022-12-07T08:59:43;97160.99;;;1.38;83.77
73106;BME280;61559;50.476;15.588;2022-12-07T09:02:14;97163.64;;;1.39;83.63
73106;BME280;61559;50.476;15.588;2022-12-07T09:04:45;97166.12;;;1.41;83.67
73106;BME280;61559;50.476;15.588;2022-12-07T09:07:16;97163.98;;;1.45;83.18
73106;BME280;61559;50.476;15.588;2022-12-07T09:09:46;97158.40;;;1.50;83.15
73106;BME280;61559;50.476;15.588;2022-12-07T09:12:17;97157.48;;;1.57;83.31
73106;BME280;61559;50.476;15.588;2022-12-07T09:14:48;97159.04;;;1.64;82.95
73106;BME280;61559;50.476;15.588;2022-12-07T09:17:19;97162.95;;;1.67;82.93
73106;BME280;61559;50.476;15.588;2022-12-07T09:19:50;97160.41;;;1.67;82.86
73106;BME280;61559;50.476;15.588;2022-12-07T09:22:21;97156.60;;;1.68;83.11
73106;BME280;61559;50.476;15.588;2022-12-07T09:24:52;97159.60;;;1.67;83.15
73106;BME280;61559;50.476;15.588;2022-12-07T09:27:21;97153.66;;;1.65;83.19
73106;BME280;61559;50.476;15.588;2022-12-07T09:29:52;97151.89;;;1.62;83.26
73106;BME280;61559;50.476;15.588;2022-12-07T09:32:22;97154.27;;;1.61;83.07
73106;BME280;61559;50.476;15.588;2022-12-07T09:34:54;97146.52;;;1.58;83.20
73106;BME280;61559;50.476;15.588;2022-12-07T09:37:25;97140.52;;;1.57;82.96
73106;BME280;61559;50.476;15.588;2022-12-07T09:39:56;97140.17;;;1.54;83.08
73106;BME280;61559;50.476;15.588;2022-12-07T09:42:32;97138.45;;;1.50;83.33
73106;BME280;61559;50.476;15.588;2022-12-07T09:45:06;97137.90;;;1.47;83.27
73106;BME280;61559;50.476;15.588;2022-12-07T09:47:38;97137.80;;;1.42;83.12
73106;BME280;61559;50.476;15.588;2022-12-07T09:50:16;97136.80;;;1.37;83.60
73106;BME280;61559;50.476;15.588;2022-12-07T09:52:50;97136.59;;;1.30;83.78
73106;BME280;61559;50.476;15.588;2022-12-07T09:55:24;97136.09;;;1.25;84.10
73106;BME280;61559;50.476;15.588;2022-12-07T09:57:57;97131.21;;;1.20;84.08
73106;BME280;61559;50.476;15.588;2022-12-07T10:00:28;97125.80;;;1.16;84.20
73106;BME280;61559;50.476;15.588;2022-12-07T10:03:02;97121.48;;;1.14;84.64
73106;BME280;61559;50.476;15.588;2022-12-07T10:05:36;97114.28;;;1.12;84.74
73106;BME280;61559;50.476;15.588;2022-12-07T10:08:12;97125.48;;;1.10;84.82
73106;BME280;61559;50.476;15.588;2022-12-07T10:10:47;97128.23;;;1.06;84.99
73106;BME280;61559;50.476;15.588;2022-12-07T10:13:21;97124.68;;;1.04;85.16
73106;BME280;61559;50.476;15.588;2022-12-07T10:15:55;97123.36;;;1.02;85.57
73106;BME280;61559;50.476;15.588;2022-12-07T10:18:36;97121.44;;;1.01;85.59
73106;BME280;61559;50.476;15.588;2022-12-07T10:21:16;97122.20;;;0.97;85.83
73106;BME280;61559;50.476;15.588;2022-12-07T10:24:03;97116.52;;;0.93;85.98
73106;BME280;61559;50.476;15.588;2022-12-07T10:26:35;97115.45;;;0.92;86.14
73106;BME280;61559;50.476;15.588;2022-12-07T10:29:16;97113.02;;;0.92;86.49
73106;BME280;61559;50.476;15.588;2022-12-07T10:31:54;97111.09;;;0.95;86.46
73106;BME280;61559;50.476;15.588;2022-12-07T10:34:27;97106.23;;;0.97;86.51
73106;BME280;61559;50.476;15.588;2022-12-07T10:37:18;97103.58;;;1.02;86.50
73106;BME280;61559;50.476;15.588;2022-12-07T10:39:51;97107.64;;;1.03;86.64
73106;BME280;61559;50.476;15.588;2022-12-07T10:42:23;97110.98;;;1.03;86.61
73106;BME280;61559;50.476;15.588;2022-12-07T10:45:12;97113.79;;;1.03;86.77
73106;BME280;61559;50.476;15.588;2022-12-07T10:47:48;97113.32;;;1.03;86.67
73106;BME280;61559;50.476;15.588;2022-12-07T10:50:34;97107.69;;;1.04;86.94
73106;BME280;61559;50.476;15.588;2022-12-07T10:53:23;97107.48;;;1.04;86.62
73106;BME280;61559;50.476;15.588;2022-12-07T10:56:20;97108.40;;;1.05;86.80
73106;BME280;61559;50.476;15.588;2022-12-07T10:59:04;97109.16;;;1.04;86.79
73106;BME280;61559;50.476;15.588;2022-12-07T11:01:45;97104.40;;;1.04;86.98
73106;BME280;61559;50.476;15.588;2022-12-07T11:04:28;97099.58;;;1.05;86.91
73106;BME280;61559;50.476;15.588;2022-12-07T11:07:04;97101.10;;;1.05;86.97
73106;BME280;61559;50.476;15.588;2022-12-07T11:09:59;97097.90;;;1.06;86.95
73106;BME280;61559;50.476;15.588;2022-12-07T11:12:50;97093.80;;;1.08;87.07
73106;BME280;61559;50.476;15.588;2022-12-07T11:15:26;97093.84;;;1.09;86.98
73106;BME280;61559;50.476;15.588;2022-12-07T11:18:06;97093.48;;;1.10;87.00
73106;BME280;61559;50.476;15.588;2022-12-07T11:20:44;97087.20;;;1.12;87.05
73106;BME280;61559;50.476;15.588;2022-12-07T11:23:24;97085.16;;;1.18;86.91
73106;BME280;61559;50.476;15.588;2022-12-07T11:26:05;97082.77;;;1.22;86.84
73106;BME280;61559;50.476;15.588;2022-12-07T11:28:56;97078.57;;;1.25;86.82
73106;BME280;61559;50.476;15.588;2022-12-07T11:31:48;97082.71;;;1.28;86.91
73106;BME280;61559;50.476;15.588;2022-12-07T11:34:34;97076.63;;;1.28;86.61
73106;BME280;61559;50.476;15.588;2022-12-07T11:37:09;97072.83;;;1.26;86.47
73106;BME280;61559;50.476;15.588;2022-12-07T11:39:46;97070.49;;;1.27;86.56
73106;BME280;61559;50.476;15.588;2022-12-07T11:42:24;97076.42;;;1.28;86.59
73106;BME280;61559;50.476;15.588;2022-12-07T11:44:59;97076.16;;;1.31;86.51
73106;BME280;61559;50.476;15.588;2022-12-07T11:47:40;97069.83;;;1.35;86.69
73106;BME280;61559;50.476;15.588;2022-12-07T11:50:25;97065.20;;;1.38;86.65
73106;BME280;61559;50.476;15.588;2022-12-07T11:53:00;97067.83;;;1.40;86.30
73106;BME280;61559;50.476;15.588;2022-12-07T11:55:42;97067.48;;;1.39;86.16
73106;BME280;61559;50.476;15.588;2022-12-07T11:58:27;97061.70;;;1.39;86.21
73106;BME280;61559;50.476;15.588;2022-12-07T12:01:17;97061.95;;;1.38;86.26
73106;BME280;61559;50.476;15.588;2022-12-07T12:03:56;97061.54;;;1.40;86.26
73106;BME280;61559;50.476;15.588;2022-12-07T12:06:29;97054.73;;;1.42;86.37
73106;BME280;61559;50.476;15.588;2022-12-07T12:09:04;97052.09;;;1.42;86.31
73106;BME280;61559;50.476;15.588;2022-12-07T12:15:23;97046.77;;;1.44;86.29
73106;BME280;61559;50.476;15.588;2022-12-07T12:18:09;97046.91;;;1.45;86.35
73106;BME280;61559;50.476;15.588;2022-12-07T12:20:45;97043.97;;;1.45;86.47
73106;BME280;61559;50.476;15.588;2022-12-07T12:23:20;97044.57;;;1.47;86.57
73106;BME280;61559;50.476;15.588;2022-12-07T12:25:54;97038.98;;;1.49;86.42
73106;BME280;61559;50.476;15.588;2022-12-07T12:28:29;97039.54;;;1.51;86.38
73106;BME280;61559;50.476;15.588;2022-12-07T12:31:11;97033.90;;;1.53;86.26
73106;BME280;61559;50.476;15.588;2022-12-07T12:33:46;97039.98;;;1.56;86.18
73106;BME280;61559;50.476;15.588;2022-12-07T12:36:27;97041.04;;;1.58;86.09
73106;BME280;61559;50.476;15.588;2022-12-07T12:39:15;97044.18;;;1.60;86.34
73106;BME280;61559;50.476;15.588;2022-12-07T12:42:02;97038.79;;;1.62;86.21
73106;BME280;61559;50.476;15.588;2022-12-07T12:45:19;97034.83;;;1.63;86.13
73106;BME280;61559;50.476;15.588;2022-12-07T12:51:38;97035.86;;;1.72;86.00
73106;BME280;61559;50.476;15.588;2022-12-07T12:54:18;97036.37;;;1.77;85.75
73106;BME280;61559;50.476;15.588;2022-12-07T12:56:55;97034.42;;;1.82;85.67
73106;BME280;61559;50.476;15.588;2022-12-07T12:59:31;97035.25;;;1.89;85.55
73106;BME280;61559;50.476;15.588;2022-12-07T13:02:29;97033.30;;;1.95;85.14
73106;BME280;61559;50.476;15.588;2022-12-07T13:05:03;97034.28;;;2.01;84.83
73106;BME280;61559;50.476;15.588;2022-12-07T13:08:01;97039.79;;;2.07;84.47
73106;BME280;61559;50.476;15.588;2022-12-07T13:10:47;97040.44;;;2.10;84.03
73106;BME280;61559;50.476;15.588;2022-12-07T13:13:37;97032.60;;;2.14;83.89
73106;BME280;61559;50.476;15.588;2022-12-07T13:16:39;97032.48;;;2.17;83.70
73106;BME280;61559;50.476;15.588;2022-12-07T13:22:51;97036.67;;;2.19;83.90
73106;BME280;61559;50.476;15.588;2022-12-07T13:25:37;97037.48;;;2.21;84.12
73106;BME280;61559;50.476;15.588;2022-12-07T13:28:16;97035.83;;;2.24;84.15
73106;BME280;61559;50.476;15.588;2022-12-07T13:33:44;97030.93;;;2.28;84.39
73106;BME280;61559;50.476;15.588;2022-12-07T13:36:20;97031.79;;;2.29;84.26
73106;BME280;61559;50.476;15.588;2022-12-07T13:38:55;97035.53;;;2.32;84.42
73106;BME280;61559;50.476;15.588;2022-12-07T13:41:27;97032.88;;;2.33;84.18
73106;BME280;61559;50.476;15.588;2022-12-07T13:44:07;97030.09;;;2.33;84.25
73106;BME280;61559;50.476;15.588;2022-12-07T13:46:47;97030.50;;;2.33;84.24
73106;BME280;61559;50.476;15.588;2022-12-07T13:49:23;97030.70;;;2.33;84.26
73106;BME280;61559;50.476;15.588;2022-12-07T13:52:06;97028.98;;;2.33;84.25
73106;BME280;61559;50.476;15.588;2022-12-07T13:54:47;97026.63;;;2.35;84.15
73106;BME280;61559;50.476;15.588;2022-12-07T13:57:20;97027.23;;;2.36;84.22